EA3GYL La Torregassa ES current weather conditions

sailwx.info

Wind from 105 at 6 knots gusting 10

Air temperature 17.8° C
Dewpoint 15.2° C

Last reported at 2014-Nov-28 12:50 UTC.
Time now 2014-Nov-28 13:27 UTC

Location: N 41°17' E 001°31'.
View on Google Maps.

See reports from other nearby stations

  
Tides and Currents Weather Stations Pressure Air Temp Water Temp Dewpoint Dewpoint Depression Visibility Wind Speed Wind Dir Waves Ship Positions
date/time (UTC)wind fromknots sea level pressurealtimeterstation pressurevisibilityair tempwater tempwave heightnotes
2014-Nov-28 12:50 105 6 gusting 10 17.8
2014-Nov-28 12:30 112 6 gusting 10 17.2
2014-Nov-28 12:20 120 6 gusting 11 17.2
2014-Nov-28 12:00 119 5 gusting 11 17.2
2014-Nov-28 11:50 123 6 gusting 12 17.2
2014-Nov-28 11:30 118 5 gusting 12 16.7
2014-Nov-28 11:20 115 5 gusting 12 16.7
2014-Nov-28 11:00 109 4 gusting 10 16.7
2014-Nov-28 10:50 108 4 gusting 8 16.7
2014-Nov-28 10:30 119 4 gusting 9 16.7
2014-Nov-28 10:20 123 5 gusting 10 16.7
2014-Nov-28 10:00 111 6 gusting 10 16.7
2014-Nov-28 09:40 071 2 gusting 5 16.1
2014-Nov-28 09:30 057 2 gusting 5 16.1
2014-Nov-28 09:20 064 1 gusting 6 15.6
2014-Nov-28 09:00 058 2 gusting 5 15.0
2014-Nov-28 08:50 065 2 gusting 5 15.0
2014-Nov-28 01:00 050 6 gusting 13 15.6
2014-Nov-28 00:50 048 6 gusting 13 15.0
2014-Nov-28 00:40 052 5 gusting 11 15.0
2014-Nov-28 00:30 049 6 gusting 13 15.0
2014-Nov-28 00:10 050 4 gusting 7 15.0
2014-Nov-28 00:00 050 5 gusting 9 15.0
2014-Nov-27 23:50 050 5 gusting 11 15.0
2014-Nov-27 23:40 049 5 gusting 10 15.0
2014-Nov-27 23:30 047 5 gusting 12 15.0
2014-Nov-27 23:10 050 4 gusting 9 15.0
2014-Nov-27 23:00 047 5 gusting 9 15.0
2014-Nov-27 22:50 048 5 gusting 11 15.0
2014-Nov-27 22:40 053 4 gusting 10 15.0
2014-Nov-27 22:30 052 4 gusting 10 14.4
2014-Nov-27 22:10 052 5 gusting 13 14.4
2014-Nov-27 22:00 046 5 gusting 10 14.4
2014-Nov-27 21:50 062 3 gusting 11 14.4
2014-Nov-27 21:40 044 5 gusting 11 15.0
2014-Nov-27 21:30 041 5 gusting 10 14.4
2014-Nov-27 21:10 039 6 gusting 11 14.4
2014-Nov-27 21:00 049 5 gusting 12 14.4
2014-Nov-27 20:50 043 6 gusting 11 14.4
2014-Nov-27 20:40 043 5 gusting 9 14.4
2014-Nov-27 20:30 042 4 gusting 8 14.4
2014-Nov-27 20:10 041 4 gusting 10 13.9
2014-Nov-27 20:00 054 3 gusting 7 13.9
2014-Nov-27 19:50 044 4 gusting 8 13.9
2014-Nov-27 19:40 039 6 gusting 11 13.9
2014-Nov-27 19:30 043 4 gusting 9 13.9
2014-Nov-27 19:10 039 3 gusting 9 14.4
2014-Nov-27 19:00 043 4 gusting 9 13.9
2014-Nov-27 18:50 037 5 gusting 8 13.9
2014-Nov-27 18:40 039 3 gusting 7 13.9
2014-Nov-27 18:30 047 3 gusting 6 13.9
2014-Nov-27 18:10 040 5 gusting 9 13.9
2014-Nov-27 18:00 038 6 gusting 9 13.9
2014-Nov-27 17:50 038 5 gusting 10 13.9
2014-Nov-27 17:40 038 4 gusting 8 13.3
2014-Nov-27 17:30 047 3 gusting 7 13.9
2014-Nov-27 17:10 046 2 gusting 6 13.3
2014-Nov-27 17:00 042 3 gusting 6 13.3
2014-Nov-27 16:50 043 3 gusting 11 13.3
2014-Nov-27 16:40 059 4 gusting 9 13.3
2014-Nov-27 16:30 095 3 gusting 10 14.4
2014-Nov-27 16:10 062 1 gusting 4 14.4
2014-Nov-27 16:00 040 0 gusting 2 14.4
2014-Nov-27 15:50 034 2 gusting 5 14.4
2014-Nov-27 15:40 038 2 gusting 5 14.4
2014-Nov-27 15:30 041 1 gusting 4 14.4
2014-Nov-27 15:10 056 1 gusting 3 15.0
2014-Nov-27 15:00 054 0 gusting 2 15.0
2014-Nov-27 14:50 051 0 gusting 1 15.0
2014-Nov-27 14:40 031 0 gusting 1 15.0
2014-Nov-27 14:30 025 0 gusting 1 15.0
2014-Nov-27 14:10 279 0 gusting 2 14.4
2014-Nov-27 14:00 244 0 gusting 5 14.4
2014-Nov-27 13:50 077 1 gusting 5 14.4
2014-Nov-27 13:40 077 1 gusting 5 14.4
2014-Nov-27 13:30 056 1 gusting 5 14.4
2014-Nov-27 13:10 059 2 gusting 6 14.4
2014-Nov-27 13:00 063 1 gusting 4 14.4
2014-Nov-27 12:50 060 1 gusting 5 14.4
2014-Nov-27 12:40 066 0 gusting 5 15.0
2014-Nov-27 12:30 060 0 gusting 3 15.0
2014-Nov-27 12:10 056 1 gusting 4 15.0
2014-Nov-27 12:00 093 0 gusting 2 14.4
2014-Nov-27 11:50 251 1 gusting 4 13.9
2014-Nov-27 11:40 243 0 gusting 4 13.9
2014-Nov-27 11:30 227 0 gusting 3 13.9
2014-Nov-27 11:10 13.9
2014-Nov-27 11:00 13.3
2014-Nov-27 10:50 13.3
2014-Nov-27 10:40 049 1 gusting 4 13.3
2014-Nov-27 10:30 103 0 gusting 2 13.3
2014-Nov-27 10:10 023 0 gusting 3 13.3
2014-Nov-27 10:00 057 1 gusting 5 13.3
2014-Nov-27 09:50 13.9
2014-Nov-27 09:40 042 0 gusting 1 13.3
2014-Nov-27 09:30 13.3
2014-Nov-27 09:10 12.8
2014-Nov-27 09:00 12.8
2014-Nov-27 08:50 12.2
2014-Nov-27 08:30 12.2
2014-Nov-27 08:20 349 0 gusting 1 12.2
2014-Nov-27 08:00 037 2 gusting 4 12.2
2014-Nov-27 07:50 035 0 gusting 2 12.2
2014-Nov-27 07:30 034 0 gusting 2 12.2
2014-Nov-27 07:20 040 1 gusting 4 12.2
2014-Nov-27 07:00 247 3 gusting 11 11.1
2014-Nov-27 06:50 11.1
2014-Nov-27 06:30 11.1
2014-Nov-27 06:10 11.1
2014-Nov-27 06:00 11.1
2014-Nov-27 05:50 11.1
2014-Nov-27 05:40 11.7
2014-Nov-27 05:30 11.7
2014-Nov-27 05:20 11.7
2014-Nov-27 05:00 11.1
2014-Nov-27 04:50 11.7
2014-Nov-27 04:30 11.7
2014-Nov-27 04:20 11.7
2014-Nov-27 04:00 11.7
2014-Nov-27 03:50 11.7
2014-Nov-27 03:30 11.7
2014-Nov-27 03:20 11.7
2014-Nov-27 03:00 11.1
2014-Nov-27 02:50 251 0 gusting 1 11.1
2014-Nov-27 02:30 11.1
2014-Nov-27 02:20 11.1
2014-Nov-27 02:00 11.1
2014-Nov-27 01:50 11.1
2014-Nov-27 01:30 11.1
2014-Nov-27 01:10 11.1
2014-Nov-27 01:00 11.7
2014-Nov-27 00:50 11.7
2014-Nov-27 00:30 11.7
2014-Nov-27 00:10 11.7
2014-Nov-27 00:00 11.7
2014-Nov-26 23:50 11.7
2014-Nov-26 23:30 345 0 gusting 1 11.1
2014-Nov-26 23:20 150 0 gusting 4 11.1
2014-Nov-26 23:00 355 0 gusting 1 11.7
2014-Nov-26 22:50 11.1
2014-Nov-26 22:30 11.1
2014-Nov-26 22:20 10.6
2014-Nov-26 22:00 11.1
2014-Nov-26 21:50 11.7
2014-Nov-26 21:30 306 0 gusting 3 12.8
2014-Nov-26 21:20 303 1 gusting 2 12.8
2014-Nov-26 21:00 302 1 gusting 3 12.2
2014-Nov-26 20:50 300 0 gusting 2 12.8
2014-Nov-26 20:30 12.2
2014-Nov-26 20:20 12.2
2014-Nov-26 20:00 12.2
2014-Nov-26 19:50 12.2
2014-Nov-26 19:30 12.8
2014-Nov-26 19:20 12.8
2014-Nov-26 19:00 295 0 gusting 2 13.3
2014-Nov-26 18:50 13.3
2014-Nov-26 18:30 298 1 gusting 3 13.3
2014-Nov-26 18:20 322 0 gusting 2 13.3
2014-Nov-26 18:00 348 0 gusting 2 13.9
2014-Nov-26 17:50 348 1 gusting 4 13.9
2014-Nov-26 17:30 345 0 gusting 2 14.4
2014-Nov-26 17:20 14.4
2014-Nov-26 17:00 15.0
2014-Nov-26 16:50 15.0
2014-Nov-26 16:30 15.6
2014-Nov-26 16:20 15.6
2014-Nov-26 16:00 101 0 gusting 2 16.1
2014-Nov-26 15:50 100 0 gusting 3 16.7
2014-Nov-26 15:30 096 1 gusting 3 16.7
2014-Nov-26 15:20 100 1 gusting 4 17.2
2014-Nov-26 15:00 069 1 gusting 4 17.8
2014-Nov-26 14:50 072 2 gusting 5 17.2
2014-Nov-26 14:30 089 2 gusting 6 17.8
2014-Nov-26 14:20 095 3 gusting 6 17.2
2014-Nov-26 14:00 136 2 gusting 6 17.2
2014-Nov-26 13:50 134 2 gusting 5 17.2
2014-Nov-26 13:30 146 2 gusting 4 17.2
2014-Nov-26 13:20 190 0 gusting 3 17.8
2014-Nov-26 13:00 224 2 gusting 6 16.7